Time;durP1;ratioP1;P1;durP2;ratioP2;P2;SDS_P1;SDS_P2;PMS_P1;PMS_P2;Temp;Humidity;BMP_temperature;BMP_pressure;BME280_temperature;BME280_humidity;BME280_pressure;Samples;Min_cycle;Max_cycle;Signal;HPM_P1;HPM_P2
2021/07/16 00:00:25;;;;;;;34.17;16.77;;;;;;;15.51;100.00;102072.94;5207554;28;20384;-81
2021/07/16 00:02:56;;;;;;;38.75;17.42;;;;;;;15.53;100.00;102079.00;5204263;28;20028;-81
2021/07/16 00:05:26;;;;;;;36.47;17.10;;;;;;;15.60;100.00;102084.56;5217618;28;20445;-81
2021/07/16 00:07:57;;;;;;;32.47;16.25;;;;;;;15.52;100.00;102073.78;5212057;28;20033;-81
2021/07/16 00:10:27;;;;;;;37.72;16.25;;;;;;;15.51;100.00;102080.16;5207870;28;20029;-81
2021/07/16 00:12:58;;;;;;;30.95;15.63;;;;;;;15.51;100.00;102081.03;5212338;28;20533;-81
2021/07/16 00:15:28;;;;;;;32.10;16.30;;;;;;;15.45;100.00;102072.72;5219077;28;20032;-81
2021/07/16 00:17:59;;;;;;;37.95;15.18;;;;;;;15.45;100.00;102072.72;5218253;28;20025;-81
2021/07/16 00:20:29;;;;;;;30.08;14.68;;;;;;;15.47;100.00;102079.69;5211519;28;20025;-81
2021/07/16 00:23:00;;;;;;;32.03;14.55;;;;;;;15.38;100.00;102080.69;5212928;28;20033;-81
2021/07/16 00:25:30;;;;;;;30.58;14.25;;;;;;;15.36;100.00;102089.97;5218941;28;20027;-81
2021/07/16 00:28:00;;;;;;;32.40;12.93;;;;;;;15.34;100.00;102089.28;5219172;28;20502;-81
2021/07/16 00:30:31;;;;;;;32.88;14.98;;;;;;;15.38;100.00;102096.06;5212689;28;20518;-80
2021/07/16 00:33:04;;;;;;;31.00;12.68;;;;;;;15.33;100.00;102101.13;5194525;28;20032;-81
2021/07/16 00:35:35;;;;;;;33.83;13.57;;;;;;;15.36;100.00;102092.66;5216553;28;20033;-81
2021/07/16 00:38:05;;;;;;;24.58;12.60;;;;;;;15.32;100.00;102096.75;5218855;28;20031;-81
2021/07/16 00:40:36;;;;;;;36.45;13.38;;;;;;;15.27;100.00;102097.25;5215077;28;20013;-81
2021/07/16 00:43:07;;;;;;;26.63;12.35;;;;;;;15.23;100.00;102098.56;5211621;28;20025;-81
2021/07/16 00:45:37;;;;;;;25.77;11.57;;;;;;;15.29;100.00;102101.44;5214056;28;20110;-81
2021/07/16 00:48:08;;;;;;;29.77;12.73;;;;;;;15.28;100.00;102098.94;5200965;28;20044;-81
2021/07/16 00:50:41;;;;;;;27.70;12.55;;;;;;;15.23;100.00;102093.16;5216906;28;20075;-80
2021/07/16 00:53:15;;;;;;;26.65;11.88;;;;;;;15.31;100.00;102098.56;5212010;28;20024;-81
2021/07/16 00:55:47;;;;;;;24.80;11.55;;;;;;;15.20;100.00;102101.59;5212474;28;20116;-81
2021/07/16 00:58:18;;;;;;;26.38;11.05;;;;;;;15.29;100.00;102101.44;5187922;28;20059;-81
2021/07/16 01:00:48;;;;;;;23.13;12.48;;;;;;;15.18;100.00;102101.78;5216697;28;20071;-80
2021/07/16 01:03:19;;;;;;;27.60;11.35;;;;;;;15.22;100.00;102108.53;5215783;28;20025;-80
2021/07/16 01:05:50;;;;;;;22.00;11.75;;;;;;;15.25;100.00;102105.50;5208003;28;20514;-81
2021/07/16 01:08:20;;;;;;;24.13;12.05;;;;;;;15.17;100.00;102105.50;5218325;28;20403;-80
2021/07/16 01:11:11;;;;;;;22.60;11.07;;;;;;;15.10;100.00;102109.84;5188443;28;20455;-80
2021/07/16 01:13:42;;;;;;;26.25;11.73;;;;;;;15.14;100.00;102107.69;5217357;28;20021;-80
2021/07/16 01:16:15;;;;;;;22.95;11.38;;;;;;;15.11;100.00;102108.88;5216373;28;20045;-80
2021/07/16 01:18:46;;;;;;;24.15;11.13;;;;;;;15.08;100.00;102114.59;5212249;28;20033;-81
2021/07/16 01:21:17;;;;;;;31.30;13.32;;;;;;;15.03;100.00;102104.28;5211741;28;20036;-81
2021/07/16 01:23:48;;;;;;;24.90;11.75;;;;;;;15.11;100.00;102111.56;5203841;28;20083;-81
2021/07/16 01:26:19;;;;;;;28.15;12.23;;;;;;;15.18;100.00;102101.78;5217917;28;20240;-80
2021/07/16 01:28:52;;;;;;;23.75;11.32;;;;;;;15.20;100.00;102101.59;5204762;28;20057;-80
2021/07/16 01:31:23;;;;;;;30.30;11.85;;;;;;;15.13;100.00;102109.53;5216831;28;20460;-81
2021/07/16 01:33:53;;;;;;;31.60;12.60;;;;;;;15.16;100.00;102097.53;5213926;28;20076;-80
2021/07/16 01:36:24;;;;;;;27.90;11.35;;;;;;;15.21;100.00;102098.75;5211377;28;20032;-80
2021/07/16 01:38:55;;;;;;;27.80;10.70;;;;;;;15.32;100.00;102097.59;5213324;28;20520;-79
2021/07/16 01:41:26;;;;;;;25.65;11.18;;;;;;;15.26;100.00;102092.81;5216145;28;20174;-80
2021/07/16 01:43:56;;;;;;;21.73;11.15;;;;;;;15.33;100.00;102090.31;5216724;28;20475;-80
2021/07/16 01:46:27;;;;;;;29.85;10.63;;;;;;;15.23;100.00;102094.00;5211190;28;20032;-81
2021/07/16 01:48:58;;;;;;;24.08;10.13;;;;;;;15.21;100.00;102084.38;5210265;28;20086;-80
2021/07/16 01:51:29;;;;;;;21.50;10.95;;;;;;;15.25;100.00;102094.69;5216215;28;20026;-81
2021/07/16 01:54:00;;;;;;;22.00;10.48;;;;;;;15.28;100.00;102097.06;5217015;28;20024;-80
2021/07/16 01:56:31;;;;;;;24.38;11.20;;;;;;;15.23;100.00;102107.53;5207589;28;20025;-80
2021/07/16 01:59:02;;;;;;;25.88;11.77;;;;;;;15.26;100.00;102093.69;5215803;28;20018;-81
2021/07/16 02:01:33;;;;;;;28.98;11.98;;;;;;;15.22;100.00;102092.31;5214453;28;20556;-81
2021/07/16 02:04:15;;;;;;;26.23;13.07;;;;;;;15.22;100.00;102095.03;5206461;28;20031;-80
2021/07/16 02:06:47;;;;;;;40.78;13.55;;;;;;;15.21;100.00;102085.25;5207706;28;20025;-81
2021/07/16 02:09:19;;;;;;;29.20;13.30;;;;;;;15.18;100.00;102090.13;5214451;28;20029;-80
2021/07/16 02:11:49;;;;;;;28.98;12.27;;;;;;;15.26;100.00;102095.53;5215075;28;20032;-81
2021/07/16 02:14:26;;;;;;;27.85;13.20;;;;;;;15.22;100.00;102096.91;5212707;28;20502;-81
2021/07/16 02:17:00;;;;;;;37.28;14.13;;;;;;;15.18;100.00;102100.94;5192293;28;20395;-80
2021/07/16 02:19:34;;;;;;;29.45;15.32;;;;;;;15.12;100.00;102099.75;5210352;28;20036;-81
2021/07/16 02:22:06;;;;;;;33.97;13.13;;;;;;;15.16;100.00;102102.94;5213633;28;20049;-81
2021/07/16 02:24:37;;;;;;;34.38;13.18;;;;;;;15.19;100.00;102108.88;5197259;28;20036;-80
2021/07/16 02:27:09;;;;;;;42.90;14.68;;;;;;;15.28;100.00;102101.63;5210219;28;20021;-80
2021/07/16 02:29:39;;;;;;;33.60;14.75;;;;;;;15.24;100.00;102095.69;5208313;28;20029;-81
2021/07/16 02:32:09;;;;;;;35.78;14.00;;;;;;;15.24;100.00;102106.50;5213837;28;20021;-81
2021/07/16 02:34:40;;;;;;;30.20;13.85;;;;;;;15.25;100.00;102100.09;5215328;28;20025;-81
2021/07/16 02:37:10;;;;;;;32.85;13.18;;;;;;;15.24;100.00;102100.25;5212032;28;20116;-81
2021/07/16 02:39:41;;;;;;;37.40;13.98;;;;;;;15.18;100.00;102106.34;5190650;28;20115;-80
2021/07/16 02:42:11;;;;;;;40.05;15.10;;;;;;;15.15;100.00;102112.91;5193766;28;20060;-81
2021/07/16 02:44:42;;;;;;;39.33;14.55;;;;;;;15.18;100.00;102112.59;5198076;28;20477;-81
2021/07/16 02:47:12;;;;;;;36.05;14.55;;;;;;;15.23;100.00;102112.94;5214455;28;20518;-81
2021/07/16 02:49:42;;;;;;;35.53;13.63;;;;;;;15.23;100.00;102114.78;5190312;28;20475;-81
2021/07/16 02:52:13;;;;;;;31.45;14.52;;;;;;;15.16;100.00;102113.75;5209434;28;20403;-81
2021/07/16 02:54:43;;;;;;;28.17;13.18;;;;;;;15.21;100.00;102108.69;5215481;28;20061;-80
2021/07/16 02:57:14;;;;;;;36.15;13.68;;;;;;;15.20;100.00;102107.00;5187817;28;20025;-81
2021/07/16 02:59:44;;;;;;;40.58;14.90;;;;;;;15.17;100.00;102116.31;5195192;28;20044;-81
2021/07/16 03:02:15;;;;;;;37.90;13.77;;;;;;;15.17;100.00;102124.41;5178654;28;1134910;-81
2021/07/16 03:04:46;;;;;;;33.53;13.38;;;;;;;15.17;100.00;102120.88;5213703;28;20104;-81
2021/07/16 03:07:17;;;;;;;31.80;13.52;;;;;;;15.14;100.00;102123.91;5189456;28;20526;-81
2021/07/16 03:09:48;;;;;;;29.38;12.80;;;;;;;15.16;100.00;102128.13;5209996;28;20075;-81
2021/07/16 03:12:18;;;;;;;30.92;13.23;;;;;;;15.16;100.00;102133.53;5215757;28;20040;-81
2021/07/16 03:14:49;;;;;;;34.97;12.63;;;;;;;15.15;100.00;102139.94;5215686;28;20423;-81
2021/07/16 03:17:19;;;;;;;34.20;12.73;;;;;;;15.17;100.00;102137.94;5209679;28;20550;-81
2021/07/16 03:19:49;;;;;;;39.45;13.35;;;;;;;15.11;100.00;102138.59;5191040;28;20487;-81
2021/07/16 03:22:20;;;;;;;34.60;14.20;;;;;;;15.11;100.00;102141.31;5215268;28;20555;-81
2021/07/16 03:24:50;;;;;;;42.72;14.57;;;;;;;15.09;100.00;102135.19;5215377;28;20108;-82
2021/07/16 03:27:21;;;;;;;33.90;13.20;;;;;;;15.15;100.00;102141.78;5211152;28;20526;-81
2021/07/16 03:29:51;;;;;;;44.50;13.95;;;;;;;15.09;100.00;102143.31;5208163;28;20128;-82
2021/07/16 03:32:22;;;;;;;32.17;12.27;;;;;;;15.08;100.00;102144.31;5212832;28;20140;-81
2021/07/16 03:34:52;;;;;;;40.38;13.73;;;;;;;15.07;100.00;102130.97;5215127;28;20033;-82
2021/07/16 03:37:23;;;;;;;36.80;12.63;;;;;;;15.05;100.00;102135.69;5213826;28;20016;-81
2021/07/16 03:39:53;;;;;;;36.78;13.80;;;;;;;15.00;100.00;102144.28;5208141;28;20049;-81
2021/07/16 03:42:24;;;;;;;33.75;13.70;;;;;;;15.02;100.00;102145.84;5210611;28;20103;-81
2021/07/16 03:44:54;;;;;;;29.27;12.95;;;;;;;15.02;100.00;102145.84;5215453;28;20406;-81
2021/07/16 03:47:25;;;;;;;35.20;13.05;;;;;;;15.03;100.00;102142.09;5203014;28;20075;-81
2021/07/16 03:49:55;;;;;;;35.22;13.13;;;;;;;14.95;100.00;102142.06;5218153;28;20037;-82
2021/07/16 03:52:26;;;;;;;44.17;13.68;;;;;;;14.97;100.00;102129.25;5219967;28;20029;-82
2021/07/16 03:54:56;;;;;;;29.73;12.63;;;;;;;14.99;100.00;102129.94;5214896;28;20029;-82
2021/07/16 03:57:27;;;;;;;33.92;14.25;;;;;;;14.93;100.00;102130.59;5193225;28;20053;-82
2021/07/16 04:00:01;;;;;;;27.15;12.55;;;;;;;14.96;100.00;102142.91;5215268;28;20013;-82
2021/07/16 04:02:32;;;;;;;26.58;11.75;;;;;;;14.89;100.00;102139.19;5213746;28;20025;-81
2021/07/16 04:05:03;;;;;;;27.40;12.00;;;;;;;14.90;100.00;102141.72;5215837;28;20224;-82
2021/07/16 04:07:35;;;;;;;31.38;12.10;;;;;;;14.93;100.00;102140.56;5212698;28;20111;-82
2021/07/16 04:10:08;;;;;;;28.70;13.23;;;;;;;14.90;100.00;102136.31;5211419;28;20034;-82
2021/07/16 04:12:38;;;;;;;34.53;11.68;;;;;;;14.93;100.00;102141.41;5217693;28;20021;-81
2021/07/16 04:15:09;;;;;;;36.83;13.48;;;;;;;14.92;100.00;102146.97;5219432;28;20087;-82
2021/07/16 04:17:40;;;;;;;33.65;12.38;;;;;;;14.86;100.00;102143.06;5215467;28;20556;-82
2021/07/16 04:20:10;;;;;;;36.88;13.07;;;;;;;14.88;100.00;102148.31;5211846;28;20013;-82
2021/07/16 04:22:41;;;;;;;30.08;12.95;;;;;;;14.89;100.00;102141.88;5215449;28;20039;-82
2021/07/16 04:25:16;;;;;;;36.30;14.20;;;;;;;14.85;100.00;102160.28;5218907;28;20036;-82
2021/07/16 04:27:49;;;;;;;32.55;13.43;;;;;;;14.94;100.00;102159.31;5218512;28;20025;-82
2021/07/16 04:30:22;;;;;;;41.58;13.98;;;;;;;14.85;100.00;102159.44;5211352;28;20104;-82
2021/07/16 04:32:54;;;;;;;35.45;13.35;;;;;;;14.82;100.00;102160.63;5194963;28;20044;-82
2021/07/16 04:35:25;;;;;;;32.17;13.00;;;;;;;14.87;100.00;102165.53;5217897;28;20115;-82
2021/07/16 04:37:56;;;;;;;35.90;13.35;;;;;;;14.95;100.00;102162.84;5201375;28;20033;-82
2021/07/16 04:40:27;;;;;;;35.63;13.00;;;;;;;14.92;100.00;102166.72;5213638;28;20028;-81
2021/07/16 04:42:58;;;;;;;28.20;11.80;;;;;;;14.97;100.00;102158.16;5222125;28;20021;-82
2021/07/16 04:45:31;;;;;;;39.85;12.30;;;;;;;14.91;100.00;102169.56;5198686;28;20033;-82
2021/07/16 04:48:02;;;;;;;34.25;12.57;;;;;;;14.88;100.00;102170.75;5202415;28;20068;-82
2021/07/16 04:50:32;;;;;;;31.73;12.48;;;;;;;14.87;100.00;102168.22;5216717;28;20029;-81
2021/07/16 04:53:03;;;;;;;32.40;12.52;;;;;;;14.85;100.00;102165.69;5212273;28;20502;-82
2021/07/16 04:55:34;;;;;;;31.23;13.18;;;;;;;14.85;100.00;102170.22;5212461;28;20029;-81
2021/07/16 04:58:04;;;;;;;37.10;12.63;;;;;;;14.88;100.00;102178.03;5214591;28;20049;-82
2021/07/16 05:00:35;;;;;;;30.83;12.27;;;;;;;14.90;100.00;102179.53;5210533;28;20091;-82
2021/07/16 05:03:05;;;;;;;28.45;12.60;;;;;;;14.98;100.00;102178.75;5224756;28;20040;-82
2021/07/16 05:05:36;;;;;;;34.67;13.55;;;;;;;14.93;100.00;102178.38;5219322;28;20016;-81
2021/07/16 05:08:06;;;;;;;30.55;12.75;;;;;;;14.93;100.00;102181.09;5215715;28;20028;-81
2021/07/16 05:10:37;;;;;;;25.40;12.10;;;;;;;15.04;100.00;102180.78;5210783;28;20021;-82
2021/07/16 05:13:07;;;;;;;27.80;12.63;;;;;;;15.09;100.00;102174.91;5212758;28;20037;-81
2021/07/16 05:15:37;;;;;;;37.90;14.52;;;;;;;15.00;100.00;102192.94;5218100;28;20070;-81
2021/07/16 05:18:08;;;;;;;36.13;12.48;;;;;;;15.00;100.00;102190.22;5218070;28;20067;-81
2021/07/16 05:20:38;;;;;;;34.72;12.90;;;;;;;15.03;100.00;102195.31;5211098;28;20024;-81
2021/07/16 05:23:09;;;;;;;34.05;12.95;;;;;;;15.10;100.00;102201.75;5211429;28;20022;-82
2021/07/16 05:25:39;;;;;;;28.63;13.63;;;;;;;15.14;100.00;102203.13;5216453;28;20529;-81
2021/07/16 05:28:10;;;;;;;32.55;13.85;;;;;;;15.17;100.00;102200.09;5218019;28;20108;-81
2021/07/16 05:30:41;;;;;;;34.80;13.27;;;;;;;15.24;100.00;102200.28;5195537;28;20028;-81
2021/07/16 05:33:12;;;;;;;33.50;14.20;;;;;;;15.31;100.00;102204.00;5193630;28;20021;-81
2021/07/16 05:35:43;;;;;;;30.90;12.15;;;;;;;15.36;100.00;102200.81;5214037;28;20032;-81
2021/07/16 05:38:14;;;;;;;32.95;12.57;;;;;;;15.32;100.00;102215.72;5217189;28;20032;-81
2021/07/16 05:40:44;;;;;;;31.48;12.68;;;;;;;15.42;100.00;102211.00;5215618;28;20032;-81
2021/07/16 05:43:15;;;;;;;28.45;13.70;;;;;;;15.35;100.00;102213.50;5210948;28;20040;-81
2021/07/16 05:45:45;;;;;;;33.60;12.85;;;;;;;15.34;100.00;102213.66;5211120;28;20044;-81
2021/07/16 05:48:17;;;;;;;26.55;11.65;;;;;;;15.34;100.00;102205.56;5217097;28;20025;-81
2021/07/16 05:50:48;;;;;;;30.65;12.77;;;;;;;15.38;100.00;102210.47;5198809;28;20040;-81
2021/07/16 05:53:19;;;;;;;33.45;12.30;;;;;;;15.32;100.00;102210.28;5212525;28;20032;-81
2021/07/16 05:55:50;;;;;;;24.20;12.13;;;;;;;15.29;100.00;102214.16;5210366;28;20040;-81
2021/07/16 05:58:20;;;;;;;33.17;12.35;;;;;;;15.39;100.00;102214.03;5196418;28;20029;-82
2021/07/16 06:00:51;;;;;;;36.75;14.13;;;;;;;15.43;100.00;102218.94;5209457;28;20406;-82
2021/07/16 06:03:22;;;;;;;34.80;13.95;;;;;;;15.39;100.00;102216.72;5194860;28;20030;-82
2021/07/16 06:05:53;;;;;;;31.80;11.85;;;;;;;15.38;100.00;102215.88;5214377;28;20496;-82
2021/07/16 06:08:23;;;;;;;33.97;12.30;;;;;;;15.43;100.00;102223.50;5198880;28;20135;-81
2021/07/16 06:10:53;;;;;;;34.33;13.32;;;;;;;15.63;100.00;102226.78;5209021;28;20017;-82
2021/07/16 06:13:25;;;;;;;29.65;12.18;;;;;;;15.51;100.00;102228.91;5210631;28;20033;-82
2021/07/16 06:15:56;;;;;;;39.28;10.73;;;;;;;15.68;100.00;102227.16;5215418;28;20395;-82
2021/07/16 06:18:26;;;;;;;21.10;10.35;;;;;;;15.72;100.00;102223.09;5216750;28;20025;-82
2021/07/16 06:20:57;;;;;;;29.15;11.48;;;;;;;15.73;100.00;102227.50;5212554;28;20376;-82
2021/07/16 06:23:27;;;;;;;34.35;11.07;;;;;;;15.69;100.00;102223.41;5210165;28;20513;-82
2021/07/16 06:25:57;;;;;;;23.20;10.50;;;;;;;15.70;100.00;102225.09;5195012;28;20029;-82
2021/07/16 06:28:28;;;;;;;24.65;10.65;;;;;;;15.76;100.00;102229.84;5208581;28;20024;-82
2021/07/16 06:30:58;;;;;;;23.33;10.35;;;;;;;15.79;100.00;102224.97;5210142;28;20329;-81
2021/07/16 06:33:29;;;;;;;23.65;8.48;;;;;;;15.98;100.00;102228.38;5209006;28;20123;-82
2021/07/16 06:35:59;;;;;;;23.52;9.20;;;;;;;15.92;100.00;102229.88;5210582;28;20033;-81
2021/07/16 06:38:30;;;;;;;26.63;11.23;;;;;;;15.88;100.00;102224.97;5215661;28;20071;-81
2021/07/16 06:41:02;;;;;;;22.30;8.95;;;;;;;15.96;100.00;102230.38;5215201;28;20013;-81
2021/07/16 06:43:32;;;;;;;29.75;11.02;;;;;;;15.97;100.00;102232.09;5211745;28;20082;-82
2021/07/16 06:46:03;;;;;;;19.70;9.30;;;;;;;15.81;100.00;102235.59;5210317;28;20032;-82
2021/07/16 06:48:33;;;;;;;26.27;9.25;;;;;;;15.99;100.00;102232.75;5214066;28;20041;-82
2021/07/16 06:51:04;;;;;;;20.85;9.82;;;;;;;16.00;100.00;102238.00;5214547;28;20053;-81
2021/07/16 06:53:34;;;;;;;32.58;10.10;;;;;;;16.00;100.00;102245.28;5196153;28;20075;-82
2021/07/16 06:56:05;;;;;;;20.20;8.32;;;;;;;16.01;100.00;102241.53;5207500;28;20032;-82
2021/07/16 06:58:35;;;;;;;21.35;8.50;;;;;;;16.17;100.00;102241.56;5197906;28;20115;-82
2021/07/16 07:01:07;;;;;;;26.25;8.73;;;;;;;16.08;100.00;102241.75;5208424;28;20403;-82
2021/07/16 07:03:37;;;;;;;26.17;8.85;;;;;;;16.11;100.00;102242.22;5222269;28;20111;-82
2021/07/16 07:06:08;;;;;;;28.58;9.02;;;;;;;16.09;100.00;102229.88;5214568;28;20104;-82
2021/07/16 07:08:38;;;;;;;26.83;8.43;;;;;;;16.07;100.00;102238.19;5216229;28;20029;-81
2021/07/16 07:11:09;;;;;;;35.17;9.52;;;;;;;15.99;100.00;102238.16;5210576;28;20025;-82
2021/07/16 07:13:39;;;;;;;28.98;7.90;;;;;;;16.09;100.00;102238.84;5209364;28;20086;-82
2021/07/16 07:16:15;;;;;;;26.00;8.40;;;;;;;16.19;100.00;102241.41;5194898;28;20037;-82
2021/07/16 07:18:45;;;;;;;22.73;8.15;;;;;;;16.17;100.00;102255.13;5208252;28;20090;-82
2021/07/16 07:21:16;;;;;;;21.30;8.23;;;;;;;16.27;100.00;102250.38;5208890;28;20021;-82
2021/07/16 07:23:46;;;;;;;26.75;8.23;;;;;;;16.24;100.00;102258.81;5215838;28;20619;-82
2021/07/16 07:26:17;;;;;;;17.48;8.02;;;;;;;16.47;100.00;102255.44;5215661;28;20043;-81
2021/07/16 07:28:47;;;;;;;20.17;7.93;;;;;;;16.45;100.00;102260.16;5210680;28;20017;-82
2021/07/16 07:31:19;;;;;;;27.60;8.23;;;;;;;16.44;100.00;102264.75;5207773;28;20096;-82
2021/07/16 07:33:49;;;;;;;20.10;6.82;;;;;;;16.52;100.00;102253.91;5213180;28;20056;-82
2021/07/16 07:36:20;;;;;;;20.17;7.53;;;;;;;16.29;100.00;102259.16;5215215;28;20052;-81
2021/07/16 07:38:50;;;;;;;25.50;8.68;;;;;;;16.41;100.00;102275.06;5213017;28;20055;-81
2021/07/16 07:41:21;;;;;;;21.55;8.07;;;;;;;16.46;100.00;102269.97;5190513;28;20021;-82
2021/07/16 07:43:53;;;;;;;25.05;8.20;;;;;;;16.54;100.00;102267.28;5193045;28;20030;-82
2021/07/16 07:46:24;;;;;;;18.08;7.35;;;;;;;16.52;100.00;102269.31;5197840;28;20495;-81
2021/07/16 07:48:55;;;;;;;26.15;7.93;;;;;;;16.51;100.00;102275.72;5215497;28;20390;-81
2021/07/16 07:51:25;;;;;;;29.08;8.75;;;;;;;16.39;100.00;102277.09;5200717;28;20025;-81
2021/07/16 07:53:56;;;;;;;18.15;7.55;;;;;;;16.40;100.00;102276.91;5197810;28;20284;-81
2021/07/16 07:56:27;;;;;;;19.30;7.05;;;;;;;16.55;100.00;102274.38;5205162;28;20053;-81
2021/07/16 07:58:58;;;;;;;26.10;8.05;;;;;;;16.67;100.00;102281.16;5214679;28;20078;-81
2021/07/16 08:01:29;;;;;;;21.70;7.00;;;;;;;16.72;100.00;102275.25;5211069;28;20460;-81
2021/07/16 08:04:00;;;;;;;23.30;8.38;;;;;;;16.63;100.00;102277.09;5217957;28;20033;-82
2021/07/16 08:06:31;;;;;;;21.98;7.85;;;;;;;16.70;100.00;102271.81;5202042;28;20067;-81
2021/07/16 08:09:02;;;;;;;29.13;7.72;;;;;;;16.70;100.00;102269.09;5213833;28;20438;-82
2021/07/16 08:11:32;;;;;;;22.67;6.63;;;;;;;16.88;100.00;102282.50;5197254;28;20025;-82
2021/07/16 08:14:03;;;;;;;19.30;6.13;;;;;;;16.92;100.00;102291.94;5190987;28;20021;-81
2021/07/16 08:16:34;;;;;;;25.67;7.45;;;;;;;16.92;100.00;102295.53;5209214;28;20029;-81
2021/07/16 08:19:04;;;;;;;24.05;7.15;;;;;;;17.00;100.00;102283.81;5213536;28;20025;-82
2021/07/16 08:21:35;;;;;;;26.38;8.00;;;;;;;16.91;100.00;102299.25;5215185;28;20071;-82
2021/07/16 08:24:05;;;;;;;21.48;6.60;;;;;;;16.94;100.00;102304.31;5192870;28;20029;-82
2021/07/16 08:26:35;;;;;;;26.25;6.82;;;;;;;16.90;100.00;102299.41;5209151;28;20028;-81
2021/07/16 08:29:06;;;;;;;17.17;6.47;;;;;;;17.17;100.00;102307.16;5193657;28;20037;-82
2021/07/16 08:31:37;;;;;;;30.00;6.90;;;;;;;17.31;100.00;102302.84;5197229;28;20031;-82
2021/07/16 08:34:08;;;;;;;34.45;8.20;;;;;;;17.33;100.00;102300.84;5213432;28;20021;-82
2021/07/16 08:36:38;;;;;;;23.33;6.63;;;;;;;17.42;100.00;102301.63;5213243;28;20118;-82
2021/07/16 08:39:09;;;;;;;19.75;5.57;;;;;;;17.82;100.00;102311.47;5212491;28;20060;-82
2021/07/16 08:41:40;;;;;;;21.85;6.00;;;;;;;18.26;100.00;102310.81;5219266;28;20488;-82
2021/07/16 08:44:10;;;;;;;20.88;5.03;;;;;;;18.46;100.00;102311.19;5200479;28;20028;-82
2021/07/16 08:46:44;;;;;;;26.17;5.78;;;;;;;18.77;100.00;102305.66;5212864;28;20021;-82
2021/07/16 08:49:15;;;;;;;22.52;5.88;;;;;;;18.95;100.00;102308.88;5193753;28;20555;-82
2021/07/16 08:51:46;;;;;;;18.95;6.20;;;;;;;18.83;100.00;102313.09;5216643;28;20427;-82
2021/07/16 08:54:18;;;;;;;17.65;5.40;;;;;;;19.07;100.00;102314.69;5218421;28;20025;-82
2021/07/16 08:56:48;;;;;;;16.70;5.05;;;;;;;18.99;100.00;102314.81;5207137;28;20033;-82
2021/07/16 08:59:19;;;;;;;27.33;5.93;;;;;;;18.86;100.00;102307.28;5217155;28;20514;-82
2021/07/16 09:01:50;;;;;;;21.35;5.43;;;;;;;19.06;100.00;102316.56;5216234;28;20091;-82
2021/07/16 09:04:23;;;;;;;28.92;5.80;;;;;;;19.57;100.00;102323.97;5219161;28;20029;-82
2021/07/16 09:06:55;;;;;;;16.95;5.18;;;;;;;19.46;100.00;102322.56;5206094;28;20026;-82
2021/07/16 09:09:35;;;;;;;19.88;4.65;;;;;;;19.55;100.00;102326.03;5215597;28;20497;-82
2021/07/16 09:12:18;;;;;;;23.38;5.18;;;;;;;19.63;100.00;102310.47;5199808;28;20030;-81
2021/07/16 09:14:51;;;;;;;20.38;6.00;;;;;;;19.47;100.00;102324.25;5217280;28;20390;-82
2021/07/16 09:17:26;;;;;;;20.75;4.70;;;;;;;19.54;100.00;102327.91;5211942;28;20029;-82
2021/07/16 09:19:57;;;;;;;20.08;5.15;;;;;;;19.53;100.00;102317.19;5210639;28;20111;-82
2021/07/16 09:22:33;;;;;;;23.13;5.65;;;;;;;19.39;100.00;102319.75;5216485;28;20105;-82
2021/07/16 09:25:05;;;;;;;21.83;5.60;;;;;;;19.57;100.00;102323.97;5199862;28;20022;-82
2021/07/16 09:27:42;;;;;;;29.02;6.38;;;;;;;19.27;100.00;102325.84;5216129;28;20033;-82
2021/07/16 09:30:27;;;;;;;21.77;5.68;;;;;;;19.15;100.00;102328.22;5210748;28;20029;-82
2021/07/16 09:33:00;;;;;;;15.43;5.35;;;;;;;18.97;100.00;102335.88;5211340;28;20030;-82
2021/07/16 09:35:33;;;;;;;18.13;6.20;;;;;;;18.84;100.00;102334.66;5215332;28;20116;-82
2021/07/16 09:38:08;;;;;;;20.40;6.03;;;;;;;18.51;100.00;102338.66;5218029;28;20031;-82
2021/07/16 09:40:41;;;;;;;14.57;5.55;;;;;;;18.67;100.00;102340.38;5214510;28;20028;-83
2021/07/16 09:43:11;;;;;;;18.73;6.35;;;;;;;18.59;100.00;102333.16;5205328;28;20033;-82
2021/07/16 09:45:45;;;;;;;23.95;6.38;;;;;;;18.28;100.00;102333.25;5215708;28;20115;-82
2021/07/16 09:48:25;;;;;;;21.90;6.13;;;;;;;18.30;100.00;102332.03;5217669;28;20021;-82
2021/07/16 09:51:14;;;;;;;21.23;6.45;;;;;;;18.35;100.00;102328.75;5216467;28;20025;-82
2021/07/16 09:54:00;;;;;;;18.05;5.60;;;;;;;18.41;100.00;102338.06;5216668;28;20025;-82
2021/07/16 09:56:36;;;;;;;19.65;7.10;;;;;;;18.42;100.00;102345.16;5198539;28;20033;-82
2021/07/16 09:59:17;;;;;;;25.13;6.93;;;;;;;17.86;100.00;102342.66;5216178;28;20032;-82
2021/07/16 10:01:48;;;;;;;21.70;6.93;;;;;;;17.93;100.00;102349.09;5215321;28;20125;-82
2021/07/16 10:04:20;;;;;;;24.77;6.47;;;;;;;17.83;100.00;102337.59;5218158;28;20017;-82
2021/07/16 10:06:53;;;;;;;30.10;7.03;;;;;;;17.65;100.00;102335.09;5204130;28;20083;-82
2021/07/16 10:09:24;;;;;;;19.98;8.02;;;;;;;17.63;100.00;102352.59;5214978;28;20040;-83
2021/07/16 10:11:56;;;;;;;23.30;7.72;;;;;;;17.75;100.00;102348.50;5216531;28;20033;-82
2021/07/16 10:14:27;;;;;;;25.42;7.68;;;;;;;17.82;100.00;102350.34;5213906;28;20064;-82
2021/07/16 10:16:58;;;;;;;24.90;7.63;;;;;;;17.92;100.00;102350.09;5210854;28;20053;-82
2021/07/16 10:19:28;;;;;;;23.58;7.35;;;;;;;17.92;100.00;102351.94;5211611;28;20037;-82
2021/07/16 10:21:59;;;;;;;23.80;6.13;;;;;;;17.86;100.00;102348.94;5216987;28;20045;-82
2021/07/16 10:24:34;;;;;;;26.58;7.13;;;;;;;17.74;100.00;102361.22;5198771;28;20040;-82
2021/07/16 10:27:05;;;;;;;29.05;8.05;;;;;;;17.90;100.00;102357.56;5216806;28;20487;-82
2021/07/16 10:29:39;;;;;;;23.45;6.80;;;;;;;18.08;100.00;102360.03;5215287;28;20083;-82
2021/07/16 10:32:10;;;;;;;29.92;7.22;;;;;;;18.15;100.00;102358.28;5211815;28;20096;-82
2021/07/16 10:34:40;;;;;;;22.17;6.82;;;;;;;18.37;100.00;102365.59;5210376;28;20061;-81
2021/07/16 10:37:13;;;;;;;25.65;6.80;;;;;;;18.31;100.00;102363.59;5213763;28;20021;-82
2021/07/16 10:39:52;;;;;;;19.42;6.53;;;;;;;18.44;100.00;102359.44;5215284;28;20075;-82
2021/07/16 10:42:26;;;;;;;22.52;6.57;;;;;;;18.61;100.00;102371.84;5185507;28;20025;-82
2021/07/16 10:44:59;;;;;;;28.80;6.75;;;;;;;18.90;100.00;102371.13;5210622;28;20041;-82
2021/07/16 10:47:40;;;;;;;27.88;6.35;;;;;;;19.12;100.00;102370.22;5210482;28;20025;-82
2021/07/16 10:50:14;;;;;;;21.00;6.25;;;;;;;19.46;100.00;102368.84;5212008;28;20032;-82
2021/07/16 10:52:47;;;;;;;20.00;5.90;;;;;;;19.69;100.00;102367.94;5215955;28;20021;-82
2021/07/16 10:55:39;;;;;;;18.23;6.20;;;;;;;19.72;100.00;102365.66;5215072;28;20017;-82
2021/07/16 10:58:30;;;;;;;20.40;5.85;;;;;;;19.50;100.00;102375.59;5185762;28;20033;-82
2021/07/16 11:01:05;;;;;;;26.85;5.30;;;;;;;19.37;100.00;102384.41;5214242;28;20111;-81
2021/07/16 11:03:39;;;;;;;23.55;5.35;;;;;;;19.56;100.00;102388.44;5216398;28;20020;-82
2021/07/16 11:06:12;;;;;;;23.90;4.60;;;;;;;19.47;100.00;102395.00;5212669;28;20439;-82
2021/07/16 11:08:42;;;;;;;25.35;5.35;;;;;;;19.18;100.00;102386.81;5216238;28;20133;-82
2021/07/16 11:11:16;;;;;;;30.25;6.22;;;;;;;19.25;100.00;102390.50;5210634;28;20542;-82
2021/07/16 11:13:54;;;;;;;19.75;5.20;;;;;;;19.56;100.00;102393.03;5209490;28;20033;-82
2021/07/16 11:16:25;;;;;;;23.90;5.20;;;;;;;19.55;100.00;102385.91;5210763;28;20033;-82
2021/07/16 11:19:04;;;;;;;22.27;4.90;;;;;;;19.65;100.00;102390.06;5215743;28;20091;-81
2021/07/16 11:21:40;;;;;;;29.30;5.15;;;;;;;19.57;100.00;102395.56;5215323;28;20028;-81
2021/07/16 11:24:14;;;;;;;20.83;5.38;;;;;;;19.54;100.00;102393.25;5212278;28;20043;-82